Time;durP1;ratioP1;P1;durP2;ratioP2;P2;SDS_P1;SDS_P2;PMS_P1;PMS_P2;Temp;Humidity;BMP_temperature;BMP_pressure;BME280_temperature;BME280_humidity;BME280_pressure;Samples;Min_cycle;Max_cycle;Signal;HPM_P1;HPM_P2
2022/04/30 00:00:58;;;;;;;11.00;6.90;;;;;;;;;;5059262;28;20512;-78
2022/04/30 00:03:27;;;;;;;10.70;7.17;;;12.50;99.90;;;;;;5056145;28;20588;-77
2022/04/30 00:05:55;;;;;;;7.93;5.87;;;12.50;99.90;;;;;;5057372;28;20454;-78
2022/04/30 00:08:21;;;;;;;6.43;5.73;;;12.60;99.90;;;;;;5057533;28;20457;-78
2022/04/30 00:10:50;;;;;;;7.83;6.37;;;12.50;99.90;;;;;;5061048;28;20450;-77
2022/04/30 00:13:17;;;;;;;7.20;6.10;;;12.40;1.00;;;;;;5056842;28;20473;-78
2022/04/30 00:15:44;;;;;;;9.57;7.37;;;12.50;99.90;;;;;;5057405;28;20450;-78
2022/04/30 00:18:10;;;;;;;8.67;6.20;;;12.60;99.90;;;;;;5057756;28;21007;-79
2022/04/30 00:20:37;;;;;;;9.17;5.87;;;12.50;99.90;;;;;;5056082;28;20532;-78
2022/04/30 00:23:04;;;;;;;10.03;6.43;;;12.40;99.90;;;;;;5057472;28;20481;-78
2022/04/30 00:25:31;;;;;;;16.00;8.10;;;12.40;99.90;;;;;;5058566;28;20471;-79
2022/04/30 00:27:58;;;;;;;8.13;6.80;;;12.40;99.90;;;;;;5056144;28;20473;-77
2022/04/30 00:30:25;;;;;;;8.53;6.10;;;12.40;99.90;;;;;;5057623;28;20424;-78
2022/04/30 00:32:53;;;;;;;8.03;6.90;;;12.30;99.90;;;;;;5064338;28;20470;-78
2022/04/30 00:35:20;;;;;;;8.33;6.10;;;12.10;99.90;;;;;;5061073;28;20533;-77
2022/04/30 00:37:47;;;;;;;8.20;6.10;;;12.10;99.90;;;;;;5059286;28;20472;-78
2022/04/30 00:40:13;;;;;;;10.73;5.90;;;12.20;99.90;;;;;;5057217;28;20450;-78
2022/04/30 00:42:40;;;;;;;9.47;5.17;;;12.20;99.90;;;;;;5053774;28;20517;-77
2022/04/30 00:45:10;;;;;;;9.73;6.00;;;12.20;99.90;;;;;;5054896;28;20519;-78
2022/04/30 00:47:37;;;;;;;6.50;5.60;;;12.10;99.90;;;;;;5058034;28;20473;-78
2022/04/30 00:50:04;;;;;;;6.23;5.63;;;12.10;99.90;;;;;;5056210;28;20473;-78
2022/04/30 00:52:31;;;;;;;5.83;5.33;;;12.10;99.90;;;;;;5065329;28;20457;-77
2022/04/30 00:55:02;;;;;;;10.30;6.37;;;12.10;99.90;;;;;;5058879;28;20477;-76
2022/04/30 00:57:32;;;;;;;7.50;5.93;;;12.10;99.90;;;;;;5054613;28;20533;-78
2022/04/30 01:00:02;;;;;;;7.30;5.43;;;12.00;99.90;;;;;;5055595;28;20426;-78
2022/04/30 01:02:33;;;;;;;6.40;5.80;;;12.00;99.90;;;;;;5056164;28;20837;-77
2022/04/30 01:05:01;;;;;;;10.63;7.07;;;11.90;99.90;;;;;;5054128;28;20441;-78
2022/04/30 01:07:29;;;;;;;7.83;7.13;;;11.90;99.90;;;;;;5055014;28;20504;-77
2022/04/30 01:09:55;;;;;;;8.73;6.13;;;11.90;99.90;;;;;;5055341;28;20450;-78
2022/04/30 01:12:23;;;;;;;8.70;7.10;;;11.90;99.90;;;;;;5054729;28;20519;-77
2022/04/30 01:14:51;;;;;;;8.50;6.40;;;11.80;99.90;;;;;;5054505;28;20514;-78
2022/04/30 01:17:18;;;;;;;9.80;6.17;;;11.80;99.90;;;;;;5054791;28;20817;-78
2022/04/30 01:19:47;;;;;;;10.73;6.43;;;11.90;99.90;;;;;;5054845;28;20496;-79
2022/04/30 01:22:20;;;;;;;10.47;7.33;;;11.90;99.90;;;;;;5064448;28;20513;-76
2022/04/30 01:24:49;;;;;;;11.80;6.40;;;11.90;99.90;;;;;;5069955;28;20423;-75
2022/04/30 01:27:17;;;;;;;7.83;5.53;;;11.80;99.90;;;;;;5066789;28;20955;-76
2022/04/30 01:29:43;;;;;;;8.60;6.20;;;11.80;99.90;;;;;;5064460;28;20416;-78
2022/04/30 01:37:38;;;;;;;6.90;5.43;;;11.70;99.90;;;;;;5059596;28;20413;-78
2022/04/30 01:40:08;;;;;;;9.17;7.20;;;11.70;99.90;;;;;;5060011;28;20481;-79
2022/04/30 01:42:38;;;;;;;6.43;5.43;;;11.60;99.90;;;;;;5058791;28;20489;-79
2022/04/30 01:45:06;;;;;;;6.70;6.03;;;11.60;99.90;;;;;;5060044;28;20446;-78
2022/04/30 01:47:36;;;;;;;6.33;5.80;;;11.70;99.90;;;;;;5059651;28;20941;-79
2022/04/30 01:50:03;;;;;;;10.00;6.10;;;11.70;99.90;;;;;;5059939;28;20474;-79
2022/04/30 01:52:30;;;;;;;5.60;5.00;;;11.60;99.90;;;;;;5060466;28;20564;-79
2022/04/30 01:54:58;;;;;;;8.50;6.07;;;11.60;99.90;;;;;;5058799;28;20449;-77
2022/04/30 01:57:26;;;;;;;9.33;6.97;;;11.60;99.90;;;;;;5057225;28;20468;-78
2022/04/30 01:59:55;;;;;;;5.33;4.80;;;11.60;99.90;;;;;;5057514;28;20503;-78
2022/04/30 02:02:24;;;;;;;12.10;5.87;;;11.60;99.90;;;;;;5056755;28;20559;-78
2022/04/30 02:04:52;;;;;;;9.03;5.80;;;11.60;99.90;;;;;;5058032;28;20453;-78
2022/04/30 02:07:20;;;;;;;7.07;6.30;;;11.60;99.90;;;;;;5059274;28;20450;-78
2022/04/30 02:09:48;;;;;;;6.73;5.83;;;11.40;99.90;;;;;;5057858;28;20485;-78
2022/04/30 02:12:15;;;;;;;10.60;5.43;;;11.40;99.90;;;;;;5059625;28;20448;-79
2022/04/30 02:14:49;;;;;;;5.93;5.33;;;11.50;99.90;;;;;;5062047;28;20480;-78
2022/04/30 02:17:17;;;;;;;7.37;5.30;;;11.40;99.90;;;;;;5068246;28;20452;-79
2022/04/30 02:22:31;;;;;;;7.20;5.20;;;11.30;99.90;;;;;;5074323;22;20496;-78
2022/04/30 02:24:58;;;;;;;5.57;5.07;;;11.30;99.90;;;;;;5057389;28;20452;-77
2022/04/30 02:27:26;;;;;;;6.40;5.27;;;11.40;99.90;;;;;;5058806;28;20781;-78
2022/04/30 02:29:54;;;;;;;5.13;4.73;;;11.30;99.90;;;;;;5058459;28;20451;-78
2022/04/30 02:32:21;;;;;;;9.80;5.30;;;11.30;99.90;;;;;;5055827;28;20460;-77
2022/04/30 02:34:48;;;;;;;7.30;6.60;;;11.40;99.90;;;;;;5059475;28;20794;-77
2022/04/30 02:37:14;;;;;;;11.97;5.43;;;11.40;99.90;;;;;;5060539;28;20506;-77
2022/04/30 02:39:42;;;;;;;10.30;5.70;;;11.30;99.90;;;;;;5058138;28;20851;-77
2022/04/30 02:42:10;;;;;;;6.37;5.30;;;11.40;99.90;;;;;;5059375;28;20470;-78
2022/04/30 02:44:36;;;;;;;7.67;5.30;;;11.40;99.90;;;;;;5065211;28;20514;-80
2022/04/30 02:47:07;;;;;;;7.50;5.23;;;11.40;99.90;;;;;;5065262;28;20465;-78
2022/04/30 02:49:34;;;;;;;6.17;5.60;;;11.30;99.90;;;;;;5062151;28;20437;-78
2022/04/30 02:52:01;;;;;;;5.53;5.03;;;11.20;99.90;;;;;;5067694;28;20458;-78
2022/04/30 02:54:29;;;;;;;4.93;4.50;;;11.10;99.90;;;;;;5067024;28;20830;-77
2022/04/30 02:56:55;;;;;;;5.60;5.10;;;11.20;99.90;;;;;;5064679;28;20842;-78
2022/04/30 03:02:07;;;;;;;6.67;5.93;;;11.30;99.90;;;;;;5065859;28;20484;-78
2022/04/30 03:04:34;;;;;;;9.20;5.03;;;;;;;;;;5064101;28;20445;-78
2022/04/30 03:07:01;;;;;;;7.00;5.50;;;11.20;99.90;;;;;;5065958;28;20441;-78
2022/04/30 03:09:28;;;;;;;5.63;5.03;;;11.10;99.90;;;;;;5059705;28;20443;-78
2022/04/30 03:11:54;;;;;;;6.23;4.50;;;11.00;99.90;;;;;;5054922;28;20500;-76
2022/04/30 03:14:21;;;;;;;9.60;5.30;;;11.00;99.90;;;;;;5054005;28;21012;-77
2022/04/30 03:22:17;;;;;;;7.10;5.07;;;;;;;;;;5055155;28;20930;-78
2022/04/30 03:24:44;;;;;;;5.63;5.00;;;10.90;99.90;;;;;;5055483;28;20430;-78
2022/04/30 03:27:11;;;;;;;4.87;4.40;;;10.80;99.90;;;;;;5054539;28;20452;-77
2022/04/30 03:29:37;;;;;;;6.10;4.60;;;10.90;99.90;;;;;;5054104;28;20478;-77
2022/04/30 03:32:05;;;;;;;9.50;4.73;;;10.90;99.90;;;;;;5053813;28;20839;-77
2022/04/30 03:34:34;;;;;;;4.37;3.97;;;10.90;99.90;;;;;;5053514;28;20481;-77
2022/04/30 03:37:01;;;;;;;5.87;5.13;;;;;;;;;;5053767;28;20477;-77
2022/04/30 03:39:27;;;;;;;8.50;4.67;;;11.00;99.90;;;;;;5054126;28;20503;-78
2022/04/30 03:41:54;;;;;;;5.93;4.10;;;10.90;1.00;;;;;;5067581;28;20559;-77
2022/04/30 03:44:20;;;;;;;6.23;4.00;;;11.00;99.90;;;;;;5055116;28;20456;-77
2022/04/30 03:46:47;;;;;;;5.80;3.33;;;11.00;99.90;;;;;;5055649;28;20465;-77
2022/04/30 03:49:14;;;;;;;4.50;3.60;;;10.90;99.90;;;;;;5055366;28;20446;-77
2022/04/30 03:51:42;;;;;;;6.00;3.80;;;10.90;1.00;;;;;;5053092;28;20947;-77
2022/04/30 03:54:09;;;;;;;5.93;3.90;;;10.90;99.90;;;;;;5053368;28;20481;-77
2022/04/30 03:56:35;;;;;;;5.60;4.10;;;10.70;99.90;;;;;;5053468;28;20537;-77
2022/04/30 03:59:02;;;;;;;7.03;4.57;;;10.70;99.90;;;;;;5053413;28;20449;-77
2022/04/30 04:01:29;;;;;;;4.97;4.13;;;10.70;99.90;;;;;;5053376;28;20449;-77
2022/04/30 04:03:56;;;;;;;9.20;4.33;;;;;;;;;;5053055;28;20462;-77
2022/04/30 04:06:23;;;;;;;5.83;4.77;;;10.90;1.00;;;;;;5058749;28;20454;-78
2022/04/30 04:08:52;;;;;;;6.07;4.53;;;10.60;99.90;;;;;;5059713;28;20464;-78
2022/04/30 04:11:18;;;;;;;4.77;4.27;;;10.60;99.90;;;;;;5061380;28;20449;-77
2022/04/30 04:19:14;;;;;;;4.87;4.33;;;10.60;99.90;;;;;;5053243;28;20907;-77
2022/04/30 04:21:41;;;;;;;5.60;4.10;;;10.50;1.00;;;;;;5052760;28;20474;-77
2022/04/30 04:26:53;;;;;;;6.93;4.03;;;10.40;99.90;;;;;;5053980;28;20785;-78
2022/04/30 04:29:20;;;;;;;6.07;4.67;;;10.40;99.90;;;;;;5056957;28;20450;-78
2022/04/30 04:31:46;;;;;;;5.80;4.60;;;10.80;1.00;;;;;;5056708;28;20469;-77
2022/04/30 04:34:13;;;;;;;4.60;4.20;;;10.60;99.90;;;;;;5056657;28;20473;-77
2022/04/30 04:36:39;;;;;;;6.20;4.80;;;10.60;99.90;;;;;;5056607;28;20533;-77
2022/04/30 04:39:11;;;;;;;8.60;4.83;;;10.60;99.90;;;;;;5059568;28;20472;-78
2022/04/30 04:41:39;;;;;;;7.23;4.73;;;10.10;1.00;;;;;;5065224;28;20428;-77
2022/04/30 04:44:05;;;;;;;6.73;4.80;;;10.40;99.90;;;;;;5065929;28;20515;-77
2022/04/30 04:46:32;;;;;;;8.95;4.82;;;10.10;1.00;;;;;;5067295;28;20431;-77
2022/04/30 04:48:59;;;;;;;5.07;4.67;;;10.40;99.90;;;;;;5059189;28;20235;-77
2022/04/30 04:51:27;;;;;;;5.27;4.77;;;10.40;99.90;;;;;;5055503;28;20452;-78
2022/04/30 04:53:53;;;;;;;5.25;4.40;;;10.50;1.00;;;;;;5055410;28;20458;-78
2022/04/30 04:56:21;;;;;;;6.40;4.67;;;10.60;99.90;;;;;;5061341;28;20203;-77
2022/04/30 04:58:48;;;;;;;8.70;5.40;;;10.70;99.90;;;;;;5067655;28;20792;-77
2022/04/30 05:01:14;;;;;;;5.07;4.60;;;10.70;99.90;;;;;;5067002;28;20854;-77
2022/04/30 05:03:41;;;;;;;6.80;5.57;;;10.80;1.00;;;;;;5061062;28;20467;-78
2022/04/30 05:06:07;;;;;;;5.20;3.83;;;10.70;99.90;;;;;;5060983;28;20477;-78
2022/04/30 05:08:34;;;;;;;5.27;4.77;;;10.70;99.90;;;;;;5058112;28;20881;-77
2022/04/30 05:11:00;;;;;;;5.60;4.50;;;10.60;99.90;;;;;;5056510;28;20528;-77
2022/04/30 05:13:28;;;;;;;6.33;4.70;;;10.60;1.00;;;;;;5058017;28;20489;-78
2022/04/30 05:15:55;;;;;;;7.97;5.77;;;10.80;99.90;;;;;;5058363;28;20449;-78
2022/04/30 05:18:21;;;;;;;8.23;4.10;;;10.90;99.90;;;;;;5062372;28;20425;-77
2022/04/30 05:20:48;;;;;;;5.50;5.00;;;11.00;99.90;;;;;;5063285;28;20420;-77
2022/04/30 05:23:15;;;;;;;4.50;4.00;;;11.10;99.90;;;;;;5060672;28;21069;-78
2022/04/30 05:25:41;;;;;;;6.97;5.77;;;11.10;99.90;;;;;;5059905;28;20786;-78
2022/04/30 05:28:08;;;;;;;6.30;5.20;;;11.00;99.90;;;;;;5059229;28;20559;-78
2022/04/30 05:30:36;;;;;;;4.87;4.33;;;11.10;99.90;;;;;;5057481;28;20489;-79
2022/04/30 05:33:03;;;;;;;6.03;3.93;;;11.10;99.90;;;;;;5057162;28;20484;-78
2022/04/30 05:35:30;;;;;;;5.70;4.37;;;11.30;99.90;;;;;;5057684;28;20480;-78
2022/04/30 05:37:56;;;;;;;7.13;4.50;;;11.20;99.90;;;;;;5057574;28;20481;-78
2022/04/30 05:40:23;;;;;;;4.03;3.63;;;11.20;99.90;;;;;;5057552;28;20953;-78
2022/04/30 05:42:49;;;;;;;7.30;4.07;;;11.20;99.90;;;;;;5065291;28;21057;-77
2022/04/30 05:45:16;;;;;;;9.20;5.53;;;11.50;1.00;;;;;;5063568;28;20450;-78
2022/04/30 05:47:44;;;;;;;5.87;4.20;;;11.20;99.90;;;;;;5065794;28;20464;-77
2022/04/30 05:50:11;;;;;;;7.70;4.20;;;11.30;99.90;;;;;;5057299;28;20450;-78
2022/04/30 05:52:38;;;;;;;7.90;4.87;;;11.30;99.90;;;;;;5056529;28;20536;-78
2022/04/30 05:55:05;;;;;;;5.90;4.70;;;11.60;1.00;;;;;;5055870;28;20541;-77
2022/04/30 05:57:32;;;;;;;5.27;4.73;;;11.30;99.90;;;;;;5055717;28;20420;-77
2022/04/30 05:59:59;;;;;;;5.17;3.90;;;11.40;99.90;;;;;;5055567;28;20556;-78
2022/04/30 06:02:26;;;;;;;3.80;3.50;;;11.40;99.90;;;;;;5055142;28;20521;-77
2022/04/30 06:04:54;;;;;;;13.87;5.70;;;11.50;99.90;;;;;;5056056;28;20503;-77
2022/04/30 06:07:21;;;;;;;5.40;3.67;;;11.70;99.90;;;;;;5054817;28;20445;-77
2022/04/30 06:09:47;;;;;;;5.27;4.00;;;11.70;99.90;;;;;;5055134;28;20425;-77
2022/04/30 06:12:14;;;;;;;9.73;3.70;;;11.70;99.90;;;;;;5055341;28;20508;-78
2022/04/30 06:14:40;;;;;;;5.93;4.90;;;11.90;99.90;;;;;;5057591;28;20480;-78
2022/04/30 06:17:07;;;;;;;5.73;4.30;;;11.80;99.90;;;;;;5057747;28;20448;-78
2022/04/30 06:19:34;;;;;;;6.60;4.20;;;12.10;99.90;;;;;;5057316;28;20843;-78
2022/04/30 06:22:01;;;;;;;5.87;4.43;;;12.20;99.90;;;;;;5058594;28;20473;-77
2022/04/30 06:24:28;;;;;;;7.40;5.80;;;12.30;99.90;;;;;;5055418;28;20531;-77
2022/04/30 06:26:55;;;;;;;6.67;4.63;;;12.20;99.90;;;;;;5055234;28;20463;-76
2022/04/30 06:29:23;;;;;;;7.47;5.30;;;12.00;99.90;;;;;;5055304;28;20454;-77
2022/04/30 06:31:50;;;;;;;8.13;4.80;;;11.80;1.00;;;;;;5055053;28;20449;-77
2022/04/30 06:34:17;;;;;;;14.17;6.50;;;12.00;99.90;;;;;;5055425;28;20457;-77
2022/04/30 06:36:43;;;;;;;4.60;4.20;;;12.20;99.90;;;;;;5055026;28;20540;-77
2022/04/30 06:39:11;;;;;;;5.50;3.80;;;12.20;99.90;;;;;;5057117;28;20476;-77
2022/04/30 06:41:38;;;;;;;6.87;4.50;;;12.30;1.00;;;;;;5059622;28;20474;-78
2022/04/30 06:44:04;;;;;;;6.57;4.90;;;12.10;99.90;;;;;;5055107;28;20548;-77
2022/04/30 06:46:32;;;;;;;11.23;5.30;;;12.10;99.90;;;;;;5054935;28;20792;-78
2022/04/30 06:48:59;;;;;;;6.10;5.07;;;12.20;99.90;;;;;;5055742;28;20450;-77
2022/04/30 06:51:25;;;;;;;6.30;4.50;;;12.30;99.90;;;;;;5055820;28;20424;-77
2022/04/30 06:59:22;;;;;;;4.80;4.30;;;12.30;99.90;;;;;;5055838;28;20409;-78
2022/04/30 07:01:51;;;;;;;7.67;5.10;;;12.50;1.00;;;;;;5056610;28;20544;-78
2022/04/30 07:04:18;;;;;;;5.10;4.70;;;;;;;;;;5065550;28;20987;-78
2022/04/30 07:06:47;;;;;;;9.53;5.00;;;12.50;99.90;;;;;;5064864;28;20449;-77
2022/04/30 07:09:14;;;;;;;62.17;39.57;;;12.40;99.90;;;;;;5062000;28;20446;-78
2022/04/30 07:11:42;;;;;;;5.50;5.00;;;12.80;99.90;;;;;;5057261;28;20452;-77
2022/04/30 07:14:08;;;;;;;7.80;6.10;;;12.60;99.90;;;;;;5055956;28;20438;-77
2022/04/30 07:16:35;;;;;;;5.63;4.90;;;12.60;99.90;;;;;;5055257;28;20942;-77
2022/04/30 07:19:03;;;;;;;6.00;5.40;;;12.50;1.00;;;;;;5053007;28;20991;-77
2022/04/30 07:21:31;;;;;;;4.73;4.33;;;12.80;99.90;;;;;;5054383;28;20466;-77
2022/04/30 07:23:57;;;;;;;6.33;4.57;;;12.90;99.90;;;;;;5054812;28;20582;-78
2022/04/30 07:26:24;;;;;;;5.90;5.30;;;13.10;99.90;;;;;;5055548;28;20488;-79
2022/04/30 07:28:52;;;;;;;7.53;5.87;;;13.20;99.90;;;;;;5055968;28;20458;-77
2022/04/30 07:31:20;;;;;;;6.80;4.17;;;13.10;99.90;;;;;;5057084;28;20450;-77
2022/04/30 07:33:47;;;;;;;11.73;5.67;;;13.30;99.90;;;;;;5055975;28;20464;-77
2022/04/30 07:36:14;;;;;;;8.17;4.57;;;13.40;99.90;;;;;;5054579;28;20952;-77
2022/04/30 07:38:41;;;;;;;6.93;4.90;;;13.30;99.90;;;;;;5056052;28;20447;-77
2022/04/30 07:41:07;;;;;;;6.60;4.70;;;13.30;99.90;;;;;;5056165;28;20819;-78
2022/04/30 07:43:35;;;;;;;8.93;4.90;;;13.30;99.90;;;;;;5066764;28;20483;-78
2022/04/30 07:46:03;;;;;;;9.20;4.37;;;13.30;99.90;;;;;;5056204;28;20899;-78
2022/04/30 07:48:30;;;;;;;11.17;5.80;;;13.40;99.90;;;;;;5055519;28;20983;-76
2022/04/30 07:50:57;;;;;;;11.60;5.37;;;13.60;99.90;;;;;;5055991;28;20464;-77
2022/04/30 07:53:25;;;;;;;8.87;4.60;;;13.60;99.90;;;;;;5056730;28;20801;-78
2022/04/30 07:55:52;;;;;;;9.03;5.30;;;13.60;99.90;;;;;;5055945;28;20449;-77
2022/04/30 07:58:19;;;;;;;7.97;5.33;;;13.60;99.90;;;;;;5054383;28;20466;-78
2022/04/30 08:00:46;;;;;;;9.90;5.37;;;13.70;99.90;;;;;;5055529;28;20500;-77
2022/04/30 08:03:16;;;;;;;9.03;5.43;;;13.80;99.90;;;;;;5056168;28;20483;-78
2022/04/30 08:05:43;;;;;;;7.73;6.37;;;;;;;;;;5056170;28;20454;-78
2022/04/30 08:08:10;;;;;;;8.67;5.60;;;13.90;99.90;;;;;;5056364;28;20470;-77
2022/04/30 08:10:37;;;;;;;10.80;5.67;;;14.10;99.90;;;;;;5054567;28;20449;-78
2022/04/30 08:13:03;;;;;;;7.23;5.60;;;14.10;99.90;;;;;;5055247;28;20807;-78
2022/04/30 08:15:30;;;;;;;6.90;5.20;;;;;;;;;;5054414;28;20484;-78
2022/04/30 08:17:57;;;;;;;9.77;6.00;;;14.00;99.90;;;;;;5055522;28;20979;-78
2022/04/30 08:20:25;;;;;;;11.17;7.67;;;14.10;99.90;;;;;;5060023;28;20459;-78
2022/04/30 08:22:51;;;;;;;9.43;6.53;;;14.40;99.90;;;;;;5086206;22;20531;-77
2022/04/30 08:25:18;;;;;;;14.07;7.17;;;14.00;1.00;;;;;;5053330;28;20448;-77
2022/04/30 08:27:45;;;;;;;10.20;7.33;;;14.40;99.90;;;;;;5053713;28;20446;-77
2022/04/30 08:30:12;;;;;;;13.90;7.83;;;14.30;99.90;;;;;;5058129;28;20473;-78
2022/04/30 08:32:39;;;;;;;8.27;6.70;;;;;;;;;;5064081;28;20855;-78
2022/04/30 08:35:09;;;;;;;10.87;6.57;;;14.40;99.90;;;;;;5062818;28;20439;-77
2022/04/30 08:37:37;;;;;;;13.17;6.73;;;14.70;99.90;;;;;;5062588;28;20507;-78
2022/04/30 08:40:04;;;;;;;9.40;5.70;;;14.80;99.90;;;;;;5060691;28;20441;-77
2022/04/30 08:42:31;;;;;;;10.20;5.37;;;14.80;99.90;;;;;;5058219;28;20466;-78
2022/04/30 08:44:58;;;;;;;7.80;6.13;;;14.90;99.90;;;;;;5062940;28;20484;-78
2022/04/30 08:47:24;;;;;;;8.00;6.63;;;15.30;99.90;;;;;;5062743;28;20451;-78
2022/04/30 08:49:53;;;;;;;7.30;6.50;;;15.10;99.90;;;;;;5059385;28;20479;-78
2022/04/30 08:52:20;;;;;;;6.17;5.20;;;15.30;1.00;;;;;;5060586;28;20452;-78
2022/04/30 08:54:47;;;;;;;7.23;5.30;;;14.90;99.90;;;;;;5056987;28;20453;-77
2022/04/30 08:57:15;;;;;;;9.90;6.33;;;14.50;1.00;;;;;;5057614;28;20526;-77
2022/04/30 08:59:42;;;;;;;6.43;5.80;;;14.70;99.90;;;;;;5058346;28;21009;-78
2022/04/30 09:02:11;;;;;;;9.40;5.90;;;14.40;99.90;;;;;;5065665;28;20443;-77
2022/04/30 09:04:43;;;;;;;8.43;6.23;;;14.70;99.90;;;;;;5062900;28;20872;-76
2022/04/30 09:07:13;;;;;;;9.30;5.90;;;14.70;99.90;;;;;;5058974;28;20460;-78
2022/04/30 09:09:40;;;;;;;12.37;6.57;;;15.00;99.90;;;;;;5059549;28;20436;-78
2022/04/30 09:12:10;;;;;;;7.20;5.63;;;14.90;99.90;;;;;;5059926;28;20974;-78
2022/04/30 09:14:40;;;;;;;10.10;6.27;;;14.80;99.90;;;;;;5059861;28;20567;-77
2022/04/30 09:17:09;;;;;;;8.37;5.30;;;15.10;99.90;;;;;;5058833;28;20432;-78
2022/04/30 09:19:46;;;;;;;7.20;5.70;;;15.10;99.90;;;;;;5059488;28;20450;-79
2022/04/30 09:22:14;;;;;;;5.90;5.10;;;15.50;99.90;;;;;;5060342;28;20464;-78
2022/04/30 09:24:49;;;;;;;5.57;4.80;;;15.40;99.90;;;;;;5060807;28;20466;-79
2022/04/30 09:27:17;;;;;;;6.20;5.60;;;15.40;99.90;;;;;;5059734;28;20829;-78
2022/04/30 09:29:44;;;;;;;9.77;5.90;;;15.50;99.90;;;;;;5059017;28;20449;-78
2022/04/30 09:32:20;;;;;;;7.60;5.40;;;15.60;99.90;;;;;;5059265;28;20794;-79
2022/04/30 09:37:42;;;;;;;6.47;5.87;;;15.70;99.90;;;;;;5058071;28;20793;-79
2022/04/30 09:40:22;;;;;;;6.73;4.57;;;15.40;99.90;;;;;;5058125;28;20436;-78
2022/04/30 09:42:50;;;;;;;10.90;6.30;;;15.30;99.90;;;;;;5058121;28;20567;-79
2022/04/30 09:45:24;;;;;;;8.53;6.17;;;15.70;99.90;;;;;;5059105;28;20510;-78
2022/04/30 09:47:51;;;;;;;7.23;5.40;;;16.00;99.90;;;;;;5060853;28;20920;-78
2022/04/30 09:55:51;;;;;;;8.47;4.77;;;16.10;99.90;;;;;;5061071;28;20927;-78
2022/04/30 09:58:23;;;;;;;7.00;4.67;;;16.10;99.90;;;;;;5057111;28;20939;-78
2022/04/30 10:00:55;;;;;;;7.20;5.30;;;16.30;99.90;;;;;;5059516;28;20430;-79
2022/04/30 10:03:27;;;;;;;9.10;4.33;;;16.40;99.90;;;;;;5056960;28;20501;-78
2022/04/30 10:06:01;;;;;;;8.47;5.40;;;16.40;99.90;;;;;;5056590;28;20922;-78
2022/04/30 10:08:29;;;;;;;6.80;4.33;;;16.30;99.90;;;;;;5059064;28;20638;-78
2022/04/30 10:11:07;;;;;;;7.33;3.93;;;16.60;99.90;;;;;;5056965;28;20511;-76
2022/04/30 10:13:45;;;;;;;6.97;5.17;;;16.50;99.90;;;;;;5062123;28;20527;-77
2022/04/30 10:16:16;;;;;;;9.53;4.80;;;16.60;99.90;;;;;;5063824;28;20489;-77
2022/04/30 10:18:45;;;;;;;4.60;4.07;;;16.60;99.90;;;;;;5064146;28;20469;-77
2022/04/30 10:21:18;;;;;;;7.80;4.93;;;16.80;99.90;;;;;;5065567;28;20904;-78
2022/04/30 10:23:45;;;;;;;6.50;4.93;;;16.90;99.90;;;;;;5060000;28;20474;-77
2022/04/30 10:26:12;;;;;;;5.73;4.57;;;16.30;99.90;;;;;;5060791;28;20448;-77
2022/04/30 10:28:40;;;;;;;11.93;4.90;;;16.20;99.90;;;;;;5060217;28;20496;-78
2022/04/30 10:31:09;;;;;;;8.50;4.97;;;16.20;99.90;;;;;;5056036;28;20853;-77
2022/04/30 10:33:46;;;;;;;9.40;5.40;;;16.40;99.90;;;;;;5058254;28;21059;-78
2022/04/30 10:36:13;;;;;;;5.03;4.53;;;16.40;99.90;;;;;;5055578;28;20948;-78
2022/04/30 10:38:42;;;;;;;5.80;4.40;;;16.20;99.90;;;;;;5061489;28;20816;-79
2022/04/30 10:41:10;;;;;;;7.40;4.60;;;16.30;99.90;;;;;;5058511;28;20453;-77
2022/04/30 10:43:38;;;;;;;7.43;4.43;;;16.70;99.90;;;;;;5060665;28;20469;-77
2022/04/30 10:46:18;;;;;;;6.83;4.90;;;16.90;99.90;;;;;;5058355;28;20945;-78
2022/04/30 10:48:44;;;;;;;4.60;4.00;;;16.90;99.90;;;;;;5055131;28;20445;-77
2022/04/30 10:51:12;;;;;;;4.87;4.30;;;16.70;99.90;;;;;;5054646;28;20473;-78
2022/04/30 10:53:41;;;;;;;5.53;4.87;;;16.90;99.90;;;;;;5054051;28;20489;-78
2022/04/30 10:56:09;;;;;;;6.27;5.00;;;17.20;99.90;;;;;;5059742;28;20499;-77
2022/04/30 10:58:36;;;;;;;5.50;4.70;;;16.90;99.90;;;;;;5055830;28;20477;-79
2022/04/30 11:01:14;;;;;;;6.30;4.77;;;17.10;99.90;;;;;;5058566;28;20442;-78
2022/04/30 11:03:42;;;;;;;4.60;4.20;;;17.00;99.90;;;;;;5058647;28;20462;-78
2022/04/30 11:06:10;;;;;;;4.53;3.57;;;16.90;99.90;;;;;;5058633;28;20449;-78
2022/04/30 11:08:37;;;;;;;5.50;3.87;;;17.10;99.90;;;;;;5054885;28;20472;-78
2022/04/30 11:11:03;;;;;;;5.20;4.27;;;17.40;99.90;;;;;;5054655;28;20525;-77
2022/04/30 11:13:30;;;;;;;13.00;5.20;;;16.90;1.00;;;;;;5055783;28;20501;-77
2022/04/30 11:15:59;;;;;;;5.00;3.90;;;17.50;99.90;;;;;;5059338;28;20472;-79
2022/04/30 11:18:27;;;;;;;7.80;4.70;;;17.60;99.90;;;;;;5060883;28;20445;-78
2022/04/30 11:20:59;;;;;;;4.37;3.97;;;17.10;99.90;;;;;;5057833;28;20437;-79
2022/04/30 11:23:25;;;;;;;7.80;4.70;;;16.90;99.90;;;;;;5056949;28;20504;-77
2022/04/30 11:25:52;;;;;;;6.90;5.13;;;17.00;99.90;;;;;;5060122;28;20870;-77
2022/04/30 11:28:19;;;;;;;8.60;4.97;;;17.00;99.90;;;;;;5056421;28;20571;-76
2022/04/30 11:30:46;;;;;;;6.90;4.00;;;16.90;99.90;;;;;;5060401;28;20474;-77
2022/04/30 11:33:13;;;;;;;6.63;5.10;;;17.20;99.90;;;;;;5056024;28;20500;-77
2022/04/30 11:35:41;;;;;;;9.97;6.90;;;17.30;99.90;;;;;;5058597;28;20920;-78
2022/04/30 11:38:10;;;;;;;7.67;5.20;;;17.40;1.00;;;;;;5057081;28;20446;-78
2022/04/30 11:40:41;;;;;;;8.70;4.23;;;17.60;99.90;;;;;;5056270;28;20900;-77
2022/04/30 11:43:07;;;;;;;4.57;4.17;;;17.60;99.90;;;;;;5060696;28;20610;-78
2022/04/30 11:45:34;;;;;;;9.90;7.70;;;17.70;99.90;;;;;;5060704;28;20517;-78
2022/04/30 11:48:01;;;;;;;6.63;5.03;;;17.80;99.90;;;;;;5055250;28;20468;-78
2022/04/30 11:50:28;;;;;;;7.30;4.80;;;18.30;99.90;;;;;;5055929;28;20477;-77
2022/04/30 11:52:57;;;;;;;7.23;4.80;;;18.00;99.90;;;;;;5054590;28;20466;-77
2022/04/30 11:55:25;;;;;;;7.43;4.90;;;18.10;99.90;;;;;;5055756;28;20446;-79
2022/04/30 11:57:51;;;;;;;5.20;4.37;;;17.50;99.90;;;;;;5061034;28;20460;-78
2022/04/30 12:00:20;;;;;;;6.03;5.10;;;17.70;99.90;;;;;;5060700;28;20859;-79
2022/04/30 12:02:48;;;;;;;8.13;6.50;;;17.60;99.90;;;;;;5061937;28;20462;-78
2022/04/30 12:05:15;;;;;;;11.70;6.10;;;17.60;99.90;;;;;;5061141;28;20517;-77
2022/04/30 12:07:44;;;;;;;7.57;5.10;;;17.50;99.90;;;;;;5059835;28;20456;-77
2022/04/30 12:10:19;;;;;;;10.20;8.07;;;17.80;99.90;;;;;;5061669;28;20482;-79
2022/04/30 12:12:46;;;;;;;9.60;5.70;;;17.70;99.90;;;;;;5072880;28;20852;-78
2022/04/30 12:15:19;;;;;;;10.77;5.87;;;17.90;99.90;;;;;;5068591;28;20507;-78
2022/04/30 12:17:46;;;;;;;8.17;4.93;;;18.00;99.90;;;;;;5060701;28;20447;-77
2022/04/30 12:25:47;;;;;;;7.33;5.50;;;18.60;99.90;;;;;;5056450;28;20472;-77
2022/04/30 12:28:14;;;;;;;9.47;5.07;;;18.80;99.90;;;;;;5056788;28;20449;-78
2022/04/30 12:30:50;;;;;;;5.40;4.83;;;18.70;99.90;;;;;;5057032;28;20480;-78
2022/04/30 12:33:17;;;;;;;6.20;4.90;;;19.00;99.90;;;;;;5054646;28;20826;-77
2022/04/30 12:35:44;;;;;;;8.70;4.93;;;19.20;99.90;;;;;;5055101;28;20496;-78
2022/04/30 12:38:12;;;;;;;8.00;5.30;;;19.00;99.90;;;;;;5054910;28;20450;-78
2022/04/30 12:40:41;;;;;;;7.90;5.27;;;18.70;99.90;;;;;;5055660;28;20441;-78
2022/04/30 12:43:09;;;;;;;9.43;5.30;;;18.50;99.90;;;;;;5066265;28;20493;-79
2022/04/30 12:45:37;;;;;;;6.00;5.10;;;18.40;99.90;;;;;;5073572;28;20474;-78
2022/04/30 12:48:05;;;;;;;6.63;5.30;;;18.80;99.90;;;;;;5067642;28;20454;-80
2022/04/30 12:50:32;;;;;;;10.20;5.87;;;18.70;99.90;;;;;;5058084;28;20865;-80
2022/04/30 12:53:00;;;;;;;9.50;5.77;;;18.60;99.90;;;;;;5058661;28;20473;-78
2022/04/30 12:55:26;;;;;;;7.60;5.60;;;18.80;99.90;;;;;;5054721;28;20805;-77
2022/04/30 12:57:53;;;;;;;8.43;6.37;;;19.10;99.90;;;;;;5062251;28;20444;-79
2022/04/30 13:00:21;;;;;;;11.70;8.53;;;18.50;99.90;;;;;;5060615;28;20466;-79
2022/04/30 13:02:47;;;;;;;6.43;5.00;;;18.30;99.90;;;;;;5057879;28;20553;-80
2022/04/30 13:05:15;;;;;;;8.50;6.30;;;18.40;99.90;;;;;;5058760;28;20509;-78
2022/04/30 13:07:43;;;;;;;5.50;4.60;;;18.40;99.90;;;;;;5056835;28;20796;-79
2022/04/30 13:15:44;;;;;;;7.73;5.87;;;18.90;99.90;;;;;;5061339;28;20448;-78
2022/04/30 13:18:11;;;;;;;13.23;6.90;;;19.30;99.90;;;;;;5065335;28;20446;-78
2022/04/30 13:20:37;;;;;;;10.93;6.03;;;19.40;99.90;;;;;;5062390;28;20895;-78
2022/04/30 13:23:04;;;;;;;6.20;4.87;;;19.60;99.90;;;;;;5060669;28;20833;-79
2022/04/30 13:25:31;;;;;;;9.93;5.00;;;19.60;99.90;;;;;;5062023;28;20489;-78
2022/04/30 13:27:58;;;;;;;9.87;5.07;;;19.80;99.90;;;;;;5061077;28;20481;-79
2022/04/30 13:30:26;;;;;;;5.53;5.00;;;19.80;99.90;;;;;;5061001;28;20857;-79
2022/04/30 13:32:54;;;;;;;7.93;4.20;;;19.70;99.90;;;;;;5061044;28;20488;-79
2022/04/30 13:35:20;;;;;;;6.97;6.27;;;19.40;99.90;;;;;;5059851;28;20441;-79
2022/04/30 13:37:47;;;;;;;6.87;4.40;;;19.70;99.90;;;;;;5059779;28;20503;-77
2022/04/30 13:40:15;;;;;;;6.97;4.70;;;19.90;99.90;;;;;;5060520;28;20457;-79